sensor_id;sensor_type;location;lat;lon;timestamp;pressure;altitude;pressure_sealevel;temperature;humidity
48614;BME280;34408;51.426;5.444;2023-02-13T00:01:02;103644.06;;;9.07;65.00
48614;BME280;34408;51.426;5.444;2023-02-13T00:03:31;103643.09;;;9.08;65.48
48614;BME280;34408;51.426;5.444;2023-02-13T00:05:58;103649.44;;;9.07;65.28
48614;BME280;34408;51.426;5.444;2023-02-13T00:08:26;103638.84;;;9.05;64.97
48614;BME280;34408;51.426;5.444;2023-02-13T00:10:55;103645.06;;;9.06;65.44
48614;BME280;34408;51.426;5.444;2023-02-13T00:13:23;103646.06;;;9.05;64.90
48614;BME280;34408;51.426;5.444;2023-02-13T00:15:55;103640.69;;;9.05;65.37
48614;BME280;34408;51.426;5.444;2023-02-13T00:18:23;103643.38;;;9.05;65.67
48614;BME280;34408;51.426;5.444;2023-02-13T00:20:58;103637.16;;;9.04;65.09
48614;BME280;34408;51.426;5.444;2023-02-13T00:23:28;103638.00;;;9.05;65.34
48614;BME280;34408;51.426;5.444;2023-02-13T00:25:58;103631.78;;;9.04;65.28
48614;BME280;34408;51.426;5.444;2023-02-13T00:28:26;103627.28;;;9.05;65.23
48614;BME280;34408;51.426;5.444;2023-02-13T00:31:01;103628.25;;;9.04;64.81
48614;BME280;34408;51.426;5.444;2023-02-13T00:33:29;103629.25;;;9.03;65.11
48614;BME280;34408;51.426;5.444;2023-02-13T00:36:04;103630.25;;;9.02;65.18
48614;BME280;34408;51.426;5.444;2023-02-13T00:38:33;103627.56;;;9.02;65.65
48614;BME280;34408;51.426;5.444;2023-02-13T00:41:03;103628.00;;;8.97;65.25
48614;BME280;34408;51.426;5.444;2023-02-13T00:43:31;103630.38;;;9.00;64.87
48614;BME280;34408;51.426;5.444;2023-02-13T00:45:59;103624.31;;;8.98;64.77
48614;BME280;34408;51.426;5.444;2023-02-13T00:48:28;103624.31;;;8.98;65.39
48614;BME280;34408;51.426;5.444;2023-02-13T00:50:57;103625.31;;;8.97;65.62
48614;BME280;34408;51.426;5.444;2023-02-13T00:53:26;103624.47;;;8.97;64.82
48614;BME280;34408;51.426;5.444;2023-02-13T00:55:54;103626.28;;;8.96;65.05
48614;BME280;34408;51.426;5.444;2023-02-13T00:58:23;103616.56;;;8.95;65.46
48614;BME280;34408;51.426;5.444;2023-02-13T01:00:52;103614.88;;;8.94;65.08
48614;BME280;34408;51.426;5.444;2023-02-13T01:03:21;103611.63;;;8.91;64.87
48614;BME280;34408;51.426;5.444;2023-02-13T01:05:49;103619.38;;;8.94;65.22
48614;BME280;34408;51.426;5.444;2023-02-13T01:08:19;103620.22;;;8.94;64.70
48614;BME280;34408;51.426;5.444;2023-02-13T01:10:47;103621.38;;;8.92;65.00
48614;BME280;34408;51.426;5.444;2023-02-13T01:13:16;103622.34;;;8.91;64.71
48614;BME280;34408;51.426;5.444;2023-02-13T01:15:47;103622.63;;;8.88;65.19
48614;BME280;34408;51.426;5.444;2023-02-13T01:18:16;103619.97;;;8.88;65.05
48614;BME280;34408;51.426;5.444;2023-02-13T01:20:45;103618.41;;;8.85;65.17
48614;BME280;34408;51.426;5.444;2023-02-13T01:23:22;103624.75;;;8.84;65.37
48614;BME280;34408;51.426;5.444;2023-02-13T01:25:49;103616.84;;;8.82;64.87
48614;BME280;34408;51.426;5.444;2023-02-13T01:28:17;103627.72;;;8.81;64.90
48614;BME280;34408;51.426;5.444;2023-02-13T01:30:51;103615.31;;;8.80;65.04
48614;BME280;34408;51.426;5.444;2023-02-13T01:33:20;103620.66;;;8.80;64.62
48614;BME280;34408;51.426;5.444;2023-02-13T01:35:47;103619.13;;;8.77;64.87
48614;BME280;34408;51.426;5.444;2023-02-13T01:38:15;103617.44;;;8.76;64.88
48614;BME280;34408;51.426;5.444;2023-02-13T01:40:44;103614.03;;;8.74;65.37
48614;BME280;34408;51.426;5.444;2023-02-13T01:43:13;103614.03;;;8.74;65.07
48614;BME280;34408;51.426;5.444;2023-02-13T01:45:43;103616.72;;;8.74;65.48
48614;BME280;34408;51.426;5.444;2023-02-13T01:48:15;103613.19;;;8.74;65.02
48614;BME280;34408;51.426;5.444;2023-02-13T01:50:46;103611.34;;;8.74;65.44
48614;BME280;34408;51.426;5.444;2023-02-13T01:53:18;103610.66;;;8.72;64.92
48614;BME280;34408;51.426;5.444;2023-02-13T01:55:52;103602.75;;;8.71;64.70
48614;BME280;34408;51.426;5.444;2023-02-13T01:58:25;103601.91;;;8.70;65.33
48614;BME280;34408;51.426;5.444;2023-02-13T02:00:56;103602.88;;;8.69;64.68
48614;BME280;34408;51.426;5.444;2023-02-13T02:03:29;103604.72;;;8.69;65.31
48614;BME280;34408;51.426;5.444;2023-02-13T02:05:59;103604.88;;;8.67;65.51
48614;BME280;34408;51.426;5.444;2023-02-13T02:08:28;103601.34;;;8.67;65.11
48614;BME280;34408;51.426;5.444;2023-02-13T02:11:02;103603.03;;;8.68;65.15
48614;BME280;34408;51.426;5.444;2023-02-13T02:13:33;103605.03;;;8.66;65.26
48614;BME280;34408;51.426;5.444;2023-02-13T02:16:01;103596.72;;;8.59;64.54
48614;BME280;34408;51.426;5.444;2023-02-13T02:18:30;103598.13;;;8.63;64.91
48614;BME280;34408;51.426;5.444;2023-02-13T02:21:32;103600.94;;;8.62;65.31
48614;BME280;34408;51.426;5.444;2023-02-13T02:24:25;103596.56;;;8.61;64.83
48614;BME280;34408;51.426;5.444;2023-02-13T02:27:17;103593.91;;;8.61;64.89
48614;BME280;34408;51.426;5.444;2023-02-13T02:30:16;103600.25;;;8.60;65.23
48614;BME280;34408;51.426;5.444;2023-02-13T02:33:02;103603.91;;;8.59;65.13
48614;BME280;34408;51.426;5.444;2023-02-13T02:35:41;103596.84;;;8.58;65.55
48614;BME280;34408;51.426;5.444;2023-02-13T02:38:27;103605.88;;;8.57;65.63
48614;BME280;34408;51.426;5.444;2023-02-13T02:41:06;103599.81;;;8.55;65.27
48614;BME280;34408;51.426;5.444;2023-02-13T02:43:50;103602.50;;;8.55;65.14
48614;BME280;34408;51.426;5.444;2023-02-13T02:46:26;103601.66;;;8.54;65.14
48614;BME280;34408;51.426;5.444;2023-02-13T02:49:00;103600.81;;;8.54;65.01
48614;BME280;34408;51.426;5.444;2023-02-13T02:51:56;103599.25;;;8.51;65.18
48614;BME280;34408;51.426;5.444;2023-02-13T02:54:33;103589.53;;;8.50;64.53
48614;BME280;34408;51.426;5.444;2023-02-13T02:57:23;103595.03;;;8.48;65.20
48614;BME280;34408;51.426;5.444;2023-02-13T03:00:14;103593.34;;;8.47;64.62
48614;BME280;34408;51.426;5.444;2023-02-13T03:03:00;103587.13;;;8.47;64.53
48614;BME280;34408;51.426;5.444;2023-02-13T03:05:50;103592.63;;;8.45;65.00
48614;BME280;34408;51.426;5.444;2023-02-13T03:08:36;103586.84;;;8.40;64.38
48614;BME280;34408;51.426;5.444;2023-02-13T03:11:22;103589.38;;;8.42;64.46
48614;BME280;34408;51.426;5.444;2023-02-13T03:14:05;103593.75;;;8.43;64.84
48614;BME280;34408;51.426;5.444;2023-02-13T03:16:34;103589.53;;;8.40;64.09
48614;BME280;34408;51.426;5.444;2023-02-13T03:19:27;103592.19;;;8.40;64.94
48614;BME280;34408;51.426;5.444;2023-02-13T03:22:40;103592.34;;;8.39;64.51
48614;BME280;34408;51.426;5.444;2023-02-13T03:25:15;103591.50;;;8.38;64.20
48614;BME280;34408;51.426;5.444;2023-02-13T03:27:47;103587.25;;;8.36;64.29
48614;BME280;34408;51.426;5.444;2023-02-13T03:30:42;103593.47;;;8.36;64.97
48614;BME280;34408;51.426;5.444;2023-02-13T03:33:22;103577.78;;;8.32;64.08
48614;BME280;34408;51.426;5.444;2023-02-13T03:36:00;103573.41;;;8.31;64.62
48614;BME280;34408;51.426;5.444;2023-02-13T03:38:55;103586.56;;;8.34;64.27
48614;BME280;34408;51.426;5.444;2023-02-13T03:41:27;103593.84;;;8.32;63.98
48614;BME280;34408;51.426;5.444;2023-02-13T03:44:05;103590.47;;;8.30;64.12
48614;BME280;34408;51.426;5.444;2023-02-13T03:46:39;103588.91;;;8.27;64.98
48614;BME280;34408;51.426;5.444;2023-02-13T03:49:11;103594.28;;;8.27;64.63
48614;BME280;34408;51.426;5.444;2023-02-13T03:52:04;103597.78;;;8.28;63.89
48614;BME280;34408;51.426;5.444;2023-02-13T03:54:39;103597.94;;;8.26;64.00
48614;BME280;34408;51.426;5.444;2023-02-13T03:57:28;103605.97;;;8.26;63.96
48614;BME280;34408;51.426;5.444;2023-02-13T04:00:16;103599.06;;;8.24;64.17
48614;BME280;34408;51.426;5.444;2023-02-13T04:02:52;103606.25;;;8.23;63.45
48614;BME280;34408;51.426;5.444;2023-02-13T04:05:23;103603.84;;;8.20;63.69
48614;BME280;34408;51.426;5.444;2023-02-13T04:07:52;103607.38;;;8.21;63.70
48614;BME280;34408;51.426;5.444;2023-02-13T04:10:23;103612.72;;;8.21;63.81
48614;BME280;34408;51.426;5.444;2023-02-13T04:13:01;103616.41;;;8.20;63.95
48614;BME280;34408;51.426;5.444;2023-02-13T04:15:33;103611.44;;;8.15;63.70
48614;BME280;34408;51.426;5.444;2023-02-13T04:18:07;103610.47;;;8.16;63.23
48614;BME280;34408;51.426;5.444;2023-02-13T04:20:37;103604.41;;;8.14;64.21
48614;BME280;34408;51.426;5.444;2023-02-13T04:23:06;103603.56;;;8.13;63.53
48614;BME280;34408;51.426;5.444;2023-02-13T04:25:38;103601.00;;;8.12;64.56
48614;BME280;34408;51.426;5.444;2023-02-13T04:28:06;103586.91;;;8.10;63.71
48614;BME280;34408;51.426;5.444;2023-02-13T04:30:34;103594.94;;;8.10;64.33
48614;BME280;34408;51.426;5.444;2023-02-13T04:33:02;103591.56;;;8.08;63.81
48614;BME280;34408;51.426;5.444;2023-02-13T04:35:30;103593.38;;;8.07;64.29
48614;BME280;34408;51.426;5.444;2023-02-13T04:37:58;103591.84;;;8.05;63.89
48614;BME280;34408;51.426;5.444;2023-02-13T04:40:26;103598.88;;;8.06;63.62
48614;BME280;34408;51.426;5.444;2023-02-13T04:42:55;103582.66;;;7.98;63.72
48614;BME280;34408;51.426;5.444;2023-02-13T04:45:23;103593.81;;;8.03;63.56
48614;BME280;34408;51.426;5.444;2023-02-13T04:47:51;103592.25;;;8.00;64.26
48614;BME280;34408;51.426;5.444;2023-02-13T04:50:19;103591.53;;;7.98;63.37
48614;BME280;34408;51.426;5.444;2023-02-13T04:52:52;103589.84;;;7.97;63.56
48614;BME280;34408;51.426;5.444;2023-02-13T04:55:20;103581.81;;;7.97;63.59
48614;BME280;34408;51.426;5.444;2023-02-13T04:57:51;103582.94;;;7.95;63.18
48614;BME280;34408;51.426;5.444;2023-02-13T05:00:21;103585.63;;;7.95;63.02
48614;BME280;34408;51.426;5.444;2023-02-13T05:02:50;103579.69;;;7.91;63.57
48614;BME280;34408;51.426;5.444;2023-02-13T05:05:18;103585.88;;;7.92;63.59
48614;BME280;34408;51.426;5.444;2023-02-13T05:07:46;103579.69;;;7.91;62.58
48614;BME280;34408;51.426;5.444;2023-02-13T05:10:13;103579.81;;;7.90;62.84
48614;BME280;34408;51.426;5.444;2023-02-13T05:12:41;103580.81;;;7.89;62.60
48614;BME280;34408;51.426;5.444;2023-02-13T05:15:09;103580.09;;;7.87;63.47
48614;BME280;34408;51.426;5.444;2023-02-13T05:17:38;103574.88;;;7.85;63.07
48614;BME280;34408;51.426;5.444;2023-02-13T05:20:07;103583.88;;;7.84;62.83
48614;BME280;34408;51.426;5.444;2023-02-13T05:22:35;103583.19;;;7.82;62.76
48614;BME280;34408;51.426;5.444;2023-02-13T05:25:20;103585.00;;;7.81;63.31
48614;BME280;34408;51.426;5.444;2023-02-13T05:27:48;103584.31;;;7.79;62.89
48614;BME280;34408;51.426;5.444;2023-02-13T05:30:16;103587.97;;;7.78;63.43
48614;BME280;34408;51.426;5.444;2023-02-13T05:32:45;103584.44;;;7.78;63.06
48614;BME280;34408;51.426;5.444;2023-02-13T05:35:12;103581.03;;;7.76;62.59
48614;BME280;34408;51.426;5.444;2023-02-13T05:37:40;103584.56;;;7.76;62.82
48614;BME280;34408;51.426;5.444;2023-02-13T05:40:09;103584.72;;;7.75;63.38
48614;BME280;34408;51.426;5.444;2023-02-13T05:42:37;103591.91;;;7.74;62.72
48614;BME280;34408;51.426;5.444;2023-02-13T05:45:05;103588.50;;;7.72;63.40
48614;BME280;34408;51.426;5.444;2023-02-13T05:47:33;103596.53;;;7.72;63.23
48614;BME280;34408;51.426;5.444;2023-02-13T05:50:02;103596.66;;;7.71;62.77
48614;BME280;34408;51.426;5.444;2023-02-13T05:52:30;103603.84;;;7.70;62.29
48614;BME280;34408;51.426;5.444;2023-02-13T05:54:58;103597.66;;;7.70;62.51
48614;BME280;34408;51.426;5.444;2023-02-13T05:57:25;103593.41;;;7.67;63.37
48614;BME280;34408;51.426;5.444;2023-02-13T05:59:53;103590.75;;;7.67;62.31
48614;BME280;34408;51.426;5.444;2023-02-13T06:02:22;103589.03;;;7.66;63.22
48614;BME280;34408;51.426;5.444;2023-02-13T06:04:50;103583.56;;;7.68;63.24
48614;BME280;34408;51.426;5.444;2023-02-13T06:07:19;103588.09;;;7.77;62.22
48614;BME280;34408;51.426;5.444;2023-02-13T06:09:47;103587.84;;;7.90;61.41
48614;BME280;34408;51.426;5.444;2023-02-13T06:12:14;103581.97;;;8.05;61.09
48614;BME280;34408;51.426;5.444;2023-02-13T06:14:42;103581.00;;;8.16;60.83
48614;BME280;34408;51.426;5.444;2023-02-13T06:17:10;103585.25;;;8.28;60.26
48614;BME280;34408;51.426;5.444;2023-02-13T06:19:38;103587.25;;;8.45;60.37
48614;BME280;34408;51.426;5.444;2023-02-13T06:22:05;103586.84;;;8.60;59.44
48614;BME280;34408;51.426;5.444;2023-02-13T06:24:34;103578.78;;;8.60;59.48
48614;BME280;34408;51.426;5.444;2023-02-13T06:27:02;103580.34;;;8.62;59.40
48614;BME280;34408;51.426;5.444;2023-02-13T06:29:30;103585.13;;;8.68;58.95
48614;BME280;34408;51.426;5.444;2023-02-13T06:31:58;103583.41;;;8.67;58.72
48614;BME280;34408;51.426;5.444;2023-02-13T06:34:26;103590.66;;;8.57;59.09
48614;BME280;34408;51.426;5.444;2023-02-13T06:36:53;103589.81;;;8.47;58.78
48614;BME280;34408;51.426;5.444;2023-02-13T06:39:21;103593.47;;;8.36;59.73
48614;BME280;34408;51.426;5.444;2023-02-13T06:41:50;103596.25;;;8.25;59.78
48614;BME280;34408;51.426;5.444;2023-02-13T06:44:18;103597.06;;;8.16;60.33
48614;BME280;34408;51.426;5.444;2023-02-13T06:46:46;103595.09;;;8.08;60.32
48614;BME280;34408;51.426;5.444;2023-02-13T06:49:13;103594.66;;;8.03;60.24
48614;BME280;34408;51.426;5.444;2023-02-13T06:51:41;103586.31;;;7.97;60.56
48614;BME280;34408;51.426;5.444;2023-02-13T06:54:09;103592.09;;;7.92;61.50
48614;BME280;34408;51.426;5.444;2023-02-13T06:56:37;103600.41;;;7.89;61.77
48614;BME280;34408;51.426;5.444;2023-02-13T06:59:06;103599.81;;;7.86;61.21
48614;BME280;34408;51.426;5.444;2023-02-13T07:01:34;103605.44;;;7.82;61.33
48614;BME280;34408;51.426;5.444;2023-02-13T07:04:01;103599.50;;;7.79;62.11
48614;BME280;34408;51.426;5.444;2023-02-13T07:06:29;103616.69;;;7.76;61.52
48614;BME280;34408;51.426;5.444;2023-02-13T07:08:59;103610.78;;;7.73;61.58
48614;BME280;34408;51.426;5.444;2023-02-13T07:11:27;103621.88;;;7.68;61.58
48614;BME280;34408;51.426;5.444;2023-02-13T07:13:55;103612.16;;;7.67;62.15
48614;BME280;34408;51.426;5.444;2023-02-13T07:16:24;103614.13;;;7.65;62.17
48614;BME280;34408;51.426;5.444;2023-02-13T07:18:52;103620.53;;;7.53;62.20
48614;BME280;34408;51.426;5.444;2023-02-13T07:21:19;103619.84;;;7.51;62.46
48614;BME280;34408;51.426;5.444;2023-02-13T07:23:47;103618.00;;;7.51;62.70
48614;BME280;34408;51.426;5.444;2023-02-13T07:26:15;103613.63;;;7.50;62.87
48614;BME280;34408;51.426;5.444;2023-02-13T07:28:43;103607.69;;;7.47;62.86
48614;BME280;34408;51.426;5.444;2023-02-13T07:31:11;103616.44;;;7.49;62.34
48614;BME280;34408;51.426;5.444;2023-02-13T07:33:40;103617.41;;;7.48;62.57
48614;BME280;34408;51.426;5.444;2023-02-13T07:36:08;103610.38;;;7.47;62.69
48614;BME280;34408;51.426;5.444;2023-02-13T07:38:36;103606.13;;;7.44;62.18
48614;BME280;34408;51.426;5.444;2023-02-13T07:41:04;103613.19;;;7.45;62.64
48614;BME280;34408;51.426;5.444;2023-02-13T07:43:32;103614.28;;;7.43;62.58
48614;BME280;34408;51.426;5.444;2023-02-13T07:46:00;103607.25;;;7.42;62.52
48614;BME280;34408;51.426;5.444;2023-02-13T07:48:29;103611.75;;;7.41;62.71
48614;BME280;34408;51.426;5.444;2023-02-13T07:51:01;103607.25;;;7.42;63.19
48614;BME280;34408;51.426;5.444;2023-02-13T07:53:29;103610.06;;;7.40;62.69
48614;BME280;34408;51.426;5.444;2023-02-13T07:55:57;103607.53;;;7.39;63.13
48614;BME280;34408;51.426;5.444;2023-02-13T07:58:25;103620.91;;;7.39;62.91
48614;BME280;34408;51.426;5.444;2023-02-13T08:00:53;103622.72;;;7.38;62.65
48614;BME280;34408;51.426;5.444;2023-02-13T08:03:20;103629.91;;;7.38;62.87
48614;BME280;34408;51.426;5.444;2023-02-13T08:05:48;103623.56;;;7.39;62.77
48614;BME280;34408;51.426;5.444;2023-02-13T08:08:17;103622.00;;;7.36;62.64
48614;BME280;34408;51.426;5.444;2023-02-13T08:10:45;103615.94;;;7.34;62.52
48614;BME280;34408;51.426;5.444;2023-02-13T08:13:31;103627.63;;;7.33;63.11
48614;BME280;34408;51.426;5.444;2023-02-13T08:15:59;103629.44;;;7.33;62.88
48614;BME280;34408;51.426;5.444;2023-02-13T08:18:26;103625.94;;;7.32;62.92
48614;BME280;34408;51.426;5.444;2023-02-13T08:20:54;103631.28;;;7.32;63.14
48614;BME280;34408;51.426;5.444;2023-02-13T08:23:23;103628.72;;;7.31;62.97
48614;BME280;34408;51.426;5.444;2023-02-13T08:25:52;103640.28;;;7.31;63.12
48614;BME280;34408;51.426;5.444;2023-02-13T08:28:21;103642.97;;;7.31;62.90
48614;BME280;34408;51.426;5.444;2023-02-13T08:30:49;103646.63;;;7.30;62.61
48614;BME280;34408;51.426;5.444;2023-02-13T08:33:17;103653.66;;;7.31;62.94
48614;BME280;34408;51.426;5.444;2023-02-13T08:35:44;103649.16;;;7.32;62.98
48614;BME280;34408;51.426;5.444;2023-02-13T08:38:12;103649.16;;;7.32;63.26
48614;BME280;34408;51.426;5.444;2023-02-13T08:40:41;103637.41;;;7.23;63.12
48614;BME280;34408;51.426;5.444;2023-02-13T08:43:09;103651.84;;;7.32;63.64
48614;BME280;34408;51.426;5.444;2023-02-13T08:45:37;103652.81;;;7.31;63.58
48614;BME280;34408;51.426;5.444;2023-02-13T08:48:05;103652.69;;;7.32;63.25
48614;BME280;34408;51.426;5.444;2023-02-13T08:50:33;103656.25;;;7.42;63.23
48614;BME280;34408;51.426;5.444;2023-02-13T08:53:03;103665.63;;;7.58;62.45
48614;BME280;34408;51.426;5.444;2023-02-13T08:55:30;103661.63;;;7.73;62.64
48614;BME280;34408;51.426;5.444;2023-02-13T08:58:00;103657.59;;;7.88;62.07
48614;BME280;34408;51.426;5.444;2023-02-13T09:00:28;103658.78;;;8.05;60.78
48614;BME280;34408;51.426;5.444;2023-02-13T09:02:59;103657.16;;;8.23;60.35
48614;BME280;34408;51.426;5.444;2023-02-13T09:05:28;103653.53;;;8.34;60.33
48614;BME280;34408;51.426;5.444;2023-02-13T09:07:58;103651.72;;;8.34;60.33
48614;BME280;34408;51.426;5.444;2023-02-13T09:10:26;103663.78;;;8.29;60.70
48614;BME280;34408;51.426;5.444;2023-02-13T09:12:54;103653.06;;;8.19;61.42
48614;BME280;34408;51.426;5.444;2023-02-13T09:15:23;103652.03;;;8.10;61.62
48614;BME280;34408;51.426;5.444;2023-02-13T09:17:51;103658.09;;;8.03;61.60
48614;BME280;34408;51.426;5.444;2023-02-13T09:20:19;103658.75;;;7.95;62.42
48614;BME280;34408;51.426;5.444;2023-02-13T09:22:47;103652.38;;;7.87;62.01
48614;BME280;34408;51.426;5.444;2023-02-13T09:25:15;103655.78;;;7.89;62.20
48614;BME280;34408;51.426;5.444;2023-02-13T09:27:43;103657.75;;;7.87;62.84
48614;BME280;34408;51.426;5.444;2023-02-13T09:30:12;103661.41;;;7.86;63.56
48614;BME280;34408;51.426;5.444;2023-02-13T09:32:50;103660.81;;;7.82;63.73
48614;BME280;34408;51.426;5.444;2023-02-13T09:35:20;103659.25;;;7.79;63.40
48614;BME280;34408;51.426;5.444;2023-02-13T09:37:48;103649.53;;;7.78;63.29
48614;BME280;34408;51.426;5.444;2023-02-13T09:40:19;103655.16;;;7.75;63.39
48614;BME280;34408;51.426;5.444;2023-02-13T09:42:48;103656.00;;;7.76;63.35
48614;BME280;34408;51.426;5.444;2023-02-13T09:45:19;103649.81;;;7.75;63.57
48614;BME280;34408;51.426;5.444;2023-02-13T09:47:50;103658.00;;;7.83;63.50
48614;BME280;34408;51.426;5.444;2023-02-13T09:50:21;103659.34;;;7.99;63.59
48614;BME280;34408;51.426;5.444;2023-02-13T09:52:51;103657.84;;;8.15;62.85
48614;BME280;34408;51.426;5.444;2023-02-13T09:55:22;103647.44;;;8.32;63.08
48614;BME280;34408;51.426;5.444;2023-02-13T09:57:55;103657.94;;;8.54;61.71
48614;BME280;34408;51.426;5.444;2023-02-13T10:00:29;103650.75;;;8.64;62.26
48614;BME280;34408;51.426;5.444;2023-02-13T10:03:16;103653.25;;;8.75;61.59
48614;BME280;34408;51.426;5.444;2023-02-13T10:05:52;103649.47;;;8.78;61.43
48614;BME280;34408;51.426;5.444;2023-02-13T10:08:38;103656.09;;;8.74;61.76
48614;BME280;34408;51.426;5.444;2023-02-13T10:11:22;103665.53;;;8.68;61.98
48614;BME280;34408;51.426;5.444;2023-02-13T10:14:01;103667.81;;;8.63;62.49
48614;BME280;34408;51.426;5.444;2023-02-13T10:16:34;103663.03;;;8.57;62.47
48614;BME280;34408;51.426;5.444;2023-02-13T10:19:13;103658.22;;;8.51;62.69
48614;BME280;34408;51.426;5.444;2023-02-13T10:21:48;103657.53;;;8.59;62.53
48614;BME280;34408;51.426;5.444;2023-02-13T10:24:26;103654.25;;;8.74;62.21
48614;BME280;34408;51.426;5.444;2023-02-13T10:26:58;103652.69;;;8.91;61.76
48614;BME280;34408;51.426;5.444;2023-02-13T10:29:36;103648.44;;;9.08;61.95
48614;BME280;34408;51.426;5.444;2023-02-13T10:32:28;103655.63;;;9.27;60.80
48614;BME280;34408;51.426;5.444;2023-02-13T10:35:03;103647.00;;;9.33;60.53
48614;BME280;34408;51.426;5.444;2023-02-13T10:37:43;103646.03;;;9.24;60.97
48614;BME280;34408;51.426;5.444;2023-02-13T10:40:17;103646.88;;;9.15;61.37
48614;BME280;34408;51.426;5.444;2023-02-13T10:42:46;103636.75;;;8.99;62.06
48614;BME280;34408;51.426;5.444;2023-02-13T10:45:32;103643.66;;;8.92;62.69
48614;BME280;34408;51.426;5.444;2023-02-13T10:48:17;103643.53;;;8.84;62.91
48614;BME280;34408;51.426;5.444;2023-02-13T10:50:59;103641.28;;;8.79;62.96
48614;BME280;34408;51.426;5.444;2023-02-13T10:53:41;103639.88;;;8.75;63.34
48614;BME280;34408;51.426;5.444;2023-02-13T10:56:22;103639.88;;;8.75;63.38
48614;BME280;34408;51.426;5.444;2023-02-13T10:59:07;103632.81;;;8.74;64.46
48614;BME280;34408;51.426;5.444;2023-02-13T11:01:46;103630.13;;;8.74;64.21
48614;BME280;34408;51.426;5.444;2023-02-13T11:04:18;103626.31;;;8.67;64.55
48614;BME280;34408;51.426;5.444;2023-02-13T11:06:54;103631.97;;;8.74;64.50
48614;BME280;34408;51.426;5.444;2023-02-13T11:09:23;103631.97;;;8.74;64.68
48614;BME280;34408;51.426;5.444;2023-02-13T11:11:52;103626.59;;;8.74;64.91
48614;BME280;34408;51.426;5.444;2023-02-13T11:14:21;103624.91;;;8.73;64.68
48614;BME280;34408;51.426;5.444;2023-02-13T11:16:53;103619.53;;;8.73;65.31
48614;BME280;34408;51.426;5.444;2023-02-13T11:19:25;103615.03;;;8.73;65.44
48614;BME280;34408;51.426;5.444;2023-02-13T11:22:00;103610.50;;;8.74;64.90
48614;BME280;34408;51.426;5.444;2023-02-13T11:24:29;103611.22;;;8.76;65.39
48614;BME280;34408;51.426;5.444;2023-02-13T11:27:00;103605.84;;;8.76;64.92
48614;BME280;34408;51.426;5.444;2023-02-13T11:29:31;103608.38;;;8.77;65.82
48614;BME280;34408;51.426;5.444;2023-02-13T11:32:17;103605.56;;;8.79;65.54
48614;BME280;34408;51.426;5.444;2023-02-13T11:34:46;103594.69;;;8.80;65.30
48614;BME280;34408;51.426;5.444;2023-02-13T11:37:20;103596.38;;;8.81;66.24
48614;BME280;34408;51.426;5.444;2023-02-13T11:39:49;103593.72;;;8.81;65.48
48614;BME280;34408;51.426;5.444;2023-02-13T11:42:26;103588.19;;;8.83;65.88
48614;BME280;34408;51.426;5.444;2023-02-13T11:44:57;103588.06;;;8.85;66.44
48614;BME280;34408;51.426;5.444;2023-02-13T11:47:37;103585.22;;;8.86;66.11
48614;BME280;34408;51.426;5.444;2023-02-13T11:50:19;103582.25;;;8.89;66.15
48614;BME280;34408;51.426;5.444;2023-02-13T11:52:57;103587.78;;;8.88;66.36
48614;BME280;34408;51.426;5.444;2023-02-13T11:55:29;103577.59;;;8.91;66.59
48614;BME280;34408;51.426;5.444;2023-02-13T11:57:59;103573.66;;;8.95;66.25
48614;BME280;34408;51.426;5.444;2023-02-13T12:00:33;103575.19;;;8.98;65.80
48614;BME280;34408;51.426;5.444;2023-02-13T12:03:24;103575.59;;;9.03;65.99
48614;BME280;34408;51.426;5.444;2023-02-13T12:06:01;103571.78;;;9.05;66.07
48614;BME280;34408;51.426;5.444;2023-02-13T12:08:34;103568.13;;;9.06;66.77
48614;BME280;34408;51.426;5.444;2023-02-13T12:11:13;103561.63;;;9.09;66.74
48614;BME280;34408;51.426;5.444;2023-02-13T12:13:44;103561.47;;;9.10;66.62
48614;BME280;34408;51.426;5.444;2023-02-13T12:16:28;103553.97;;;9.14;66.71
48614;BME280;34408;51.426;5.444;2023-02-13T12:18:59;103555.50;;;9.17;65.79
48614;BME280;34408;51.426;5.444;2023-02-13T12:21:43;103555.22;;;9.20;65.80
48614;BME280;34408;51.426;5.444;2023-02-13T12:24:26;103555.06;;;9.21;66.51
48614;BME280;34408;51.426;5.444;2023-02-13T12:26:59;103553.94;;;9.24;66.08
48614;BME280;34408;51.426;5.444;2023-02-13T12:29:54;103549.13;;;9.27;66.02
48614;BME280;34408;51.426;5.444;2023-02-13T12:32:34;103542.47;;;9.31;66.14
48614;BME280;34408;51.426;5.444;2023-02-13T12:35:31;103548.69;;;9.32;65.73
48614;BME280;34408;51.426;5.444;2023-02-13T12:38:08;103542.03;;;9.36;66.29
48614;BME280;34408;51.426;5.444;2023-02-13T12:40:57;103534.69;;;9.38;66.40
48614;BME280;34408;51.426;5.444;2023-02-13T12:43:53;103540.75;;;9.40;65.82
48614;BME280;34408;51.426;5.444;2023-02-13T12:46:29;103528.03;;;9.42;66.29
48614;BME280;34408;51.426;5.444;2023-02-13T12:49:06;103520.13;;;9.40;65.75
48614;BME280;34408;51.426;5.444;2023-02-13T12:51:47;103529.97;;;9.50;65.53
48614;BME280;34408;51.426;5.444;2023-02-13T12:54:35;103519.91;;;9.52;66.25
48614;BME280;34408;51.426;5.444;2023-02-13T12:57:18;103517.38;;;9.50;65.76
48614;BME280;34408;51.426;5.444;2023-02-13T12:59:57;103520.47;;;9.55;65.50
48614;BME280;34408;51.426;5.444;2023-02-13T13:02:52;103507.50;;;9.51;66.00
48614;BME280;34408;51.426;5.444;2023-02-13T13:05:31;103515.50;;;9.60;66.23
48614;BME280;34408;51.426;5.444;2023-02-13T13:08:20;103512.50;;;9.63;66.25
48614;BME280;34408;51.426;5.444;2023-02-13T13:11:08;103505.84;;;9.67;65.93
48614;BME280;34408;51.426;5.444;2023-02-13T13:13:54;103506.38;;;9.71;66.19
48614;BME280;34408;51.426;5.444;2023-02-13T13:16:31;103498.19;;;9.72;66.31
48614;BME280;34408;51.426;5.444;2023-02-13T13:19:13;103503.41;;;9.74;65.69
48614;BME280;34408;51.426;5.444;2023-02-13T13:21:49;103501.56;;;9.74;65.79
48614;BME280;34408;51.426;5.444;2023-02-13T13:24:32;103508.47;;;9.77;66.19
48614;BME280;34408;51.426;5.444;2023-02-13T13:27:01;103502.09;;;9.78;65.87
48614;BME280;34408;51.426;5.444;2023-02-13T13:29:36;103496.88;;;9.76;66.79
48614;BME280;34408;51.426;5.444;2023-02-13T13:32:06;103497.56;;;9.78;66.42